Time;durP1;ratioP1;P1;durP2;ratioP2;P2;SDS_P1;SDS_P2;PMS_P1;PMS_P2;Temp;Humidity;BMP_temperature;BMP_pressure;BME280_temperature;BME280_humidity;BME280_pressure;Samples;Min_cycle;Max_cycle;Signal;HPM_P1;HPM_P2
2022/08/30 00:01:32;;;;;;;2.53;1.00;;;;;;;14.92;100.00;101196.00;6213476;28;20113;-89
2022/08/30 00:04:34;;;;;;;2.50;0.77;;;;;;;14.86;100.00;101192.16;6223134;28;20049;-89
2022/08/30 00:07:36;;;;;;;1.00;0.90;;;;;;;14.80;100.00;101195.25;6204228;28;20045;-89
2022/08/30 00:10:39;;;;;;;0.85;0.70;;;;;;;14.77;100.00;101192.94;6209839;28;20149;-89
2022/08/30 00:13:43;;;;;;;1.30;1.00;;;;;;;14.72;100.00;101190.72;6209942;28;20095;-89
2022/08/30 00:16:45;;;;;;;1.27;0.90;;;;;;;14.70;100.00;101204.84;6213562;28;20050;-89
2022/08/30 00:19:47;;;;;;;0.80;0.80;;;;;;;14.67;100.00;101200.72;6199971;28;20042;-89
2022/08/30 00:22:49;;;;;;;2.08;0.95;;;;;;;14.65;100.00;101202.63;6209636;28;20173;-89
2022/08/30 00:25:51;;;;;;;1.00;0.70;;;;;;;14.63;100.00;101199.31;6216292;28;20056;-89
2022/08/30 00:28:53;;;;;;;1.73;0.93;;;;;;;14.61;100.00;101204.66;6206227;28;20107;-89
2022/08/30 00:31:55;;;;;;;0.80;0.80;;;;;;;14.61;100.00;101201.25;6227495;28;20107;-88
2022/08/30 00:34:57;;;;;;;2.45;1.00;;;;;;;14.64;100.00;101193.16;6209889;28;20433;-89
2022/08/30 00:37:59;;;;;;;1.92;0.77;;;;;;;14.65;100.00;101186.97;6210980;28;20121;-89
2022/08/30 00:41:01;;;;;;;2.33;1.05;;;;;;;14.69;100.00;101198.81;6219003;28;20064;-89
2022/08/30 00:44:03;;;;;;;2.80;1.25;;;;;;;14.69;100.00;101197.97;6209844;28;20061;-89
2022/08/30 00:47:05;;;;;;;3.13;1.30;;;;;;;14.75;100.00;101194.84;6229079;28;20045;-89
2022/08/30 00:50:09;;;;;;;1.60;1.30;;;;;;;14.74;100.00;101194.03;6213734;28;20065;-89
2022/08/30 00:53:18;;;;;;;3.25;1.70;;;;;;;14.72;100.00;101185.50;6204640;28;20038;-89
2022/08/30 00:56:22;;;;;;;1.80;1.30;;;;;;;14.73;100.00;101187.16;6206992;28;20048;-89
2022/08/30 00:59:26;;;;;;;1.13;1.02;;;;;;;14.68;100.00;101186.72;6200508;28;20085;-89
2022/08/30 01:02:30;;;;;;;6.85;1.40;;;;;;;14.62;100.00;101182.03;6220708;28;20069;-89
2022/08/30 01:05:31;;;;;;;1.48;1.38;;;;;;;14.59;100.00;101188.34;6217856;28;20035;-89
2022/08/30 01:08:34;;;;;;;1.63;1.50;;;;;;;14.54;100.00;101187.09;6209470;28;20038;-89
2022/08/30 01:11:36;;;;;;;2.10;1.00;;;;;;;14.51;100.00;101195.09;6204501;28;20804;-89
2022/08/30 01:14:38;;;;;;;1.73;0.80;;;;;;;14.45;100.00;101186.03;6209075;28;20054;-89
2022/08/30 01:17:44;;;;;;;1.13;0.80;;;;;;;14.41;100.00;101193.31;6193877;28;20461;-89
2022/08/30 01:20:56;;;;;;;1.30;1.20;;;;;;;14.34;100.00;101196.56;6206397;28;20054;-89
2022/08/30 01:23:59;;;;;;;1.02;0.93;;;;;;;14.27;100.00;101188.44;6198364;28;20057;-89
2022/08/30 01:27:01;;;;;;;1.67;1.10;;;;;;;14.21;100.00;101186.34;6189857;28;20640;-88
2022/08/30 01:30:05;;;;;;;3.25;1.20;;;;;;;14.15;100.00;101189.44;6211374;28;20046;-89
2022/08/30 01:33:08;;;;;;;0.95;0.85;;;;;;;14.06;100.00;101185.84;6215945;28;20042;-89
2022/08/30 01:36:13;;;;;;;1.30;0.95;;;;;;;13.99;100.00;101192.50;6208213;28;20121;-89
2022/08/30 01:39:17;;;;;;;1.10;1.00;;;;;;;13.91;100.00;101187.09;6204227;28;20065;-89
2022/08/30 01:42:20;;;;;;;1.20;1.10;;;;;;;13.85;100.00;101193.63;6202068;28;20113;-89
2022/08/30 01:45:22;;;;;;;1.40;1.20;;;;;;;13.80;100.00;101188.00;6194562;28;20042;-89
2022/08/30 01:48:24;;;;;;;1.20;1.00;;;;;;;13.76;100.00;101192.63;6211236;28;20037;-89
2022/08/30 01:51:32;;;;;;;1.40;1.10;;;;;;;13.71;100.00;101193.94;6196565;28;20105;-89
2022/08/30 01:54:37;;;;;;;2.30;1.25;;;;;;;13.64;100.00;101196.22;6203782;28;20502;-89
2022/08/30 01:57:40;;;;;;;2.60;1.13;;;;;;;13.61;100.00;101190.44;6217335;28;20076;-89
2022/08/30 02:00:42;;;;;;;1.27;1.17;;;;;;;13.59;100.00;101193.19;6204523;28;20046;-89
2022/08/30 02:03:44;;;;;;;2.67;1.35;;;;;;;13.54;100.00;101187.53;6212342;28;20045;-89
2022/08/30 02:06:46;;;;;;;1.92;1.27;;;;;;;13.49;100.00;101200.91;6198499;28;20055;-89
2022/08/30 02:09:48;;;;;;;1.58;1.23;;;;;;;13.43;100.00;101195.34;6210824;28;20034;-89
2022/08/30 02:12:51;;;;;;;2.03;1.23;;;;;;;13.40;100.00;101200.81;6220123;28;20593;-89
2022/08/30 02:15:59;;;;;;;2.72;1.70;;;;;;;13.35;100.00;101193.38;6206005;28;20050;-90
2022/08/30 02:19:00;;;;;;;1.90;1.60;;;;;;;13.33;100.00;101188.28;6187901;28;20050;-89
2022/08/30 02:22:03;;;;;;;2.20;1.70;;;;;;;13.29;100.00;101197.28;6211658;28;20119;-89
2022/08/30 02:25:06;;;;;;;1.80;1.70;;;;;;;13.27;100.00;101190.56;6207919;28;20042;-89
2022/08/30 02:28:21;;;;;;;3.90;1.60;;;;;;;13.22;100.00;101193.50;6202058;28;20045;-89
2022/08/30 02:31:25;;;;;;;2.13;1.90;;;;;;;13.17;100.00;101190.44;6205802;28;20045;-89
2022/08/30 02:34:27;;;;;;;2.47;2.03;;;;;;;13.16;100.00;101196.56;6209275;28;20050;-89
2022/08/30 02:37:29;;;;;;;2.75;1.98;;;;;;;13.15;100.00;101195.75;6209637;28;20050;-89
2022/08/30 02:40:31;;;;;;;2.53;2.28;;;;;;;13.11;100.00;101201.31;6188679;28;20563;-89
2022/08/30 02:43:33;;;;;;;1.95;1.75;;;;;;;13.13;100.00;101202.00;6203056;28;20046;-89
2022/08/30 02:46:35;;;;;;;2.47;1.98;;;;;;;13.14;100.00;101204.50;6216385;28;20038;-89
2022/08/30 02:49:37;;;;;;;3.85;2.03;;;;;;;13.10;100.00;101195.28;6199644;28;20080;-89
2022/08/30 02:52:39;;;;;;;2.10;1.90;;;;;;;13.11;100.00;101196.91;6208284;28;20038;-89
2022/08/30 02:55:41;;;;;;;2.30;2.03;;;;;;;13.12;100.00;101196.00;6196775;28;20180;-89
2022/08/30 02:58:44;;;;;;;3.97;2.00;;;;;;;13.15;100.00;101194.91;6202800;28;20053;-89
2022/08/30 03:01:46;;;;;;;2.47;2.10;;;;;;;13.24;100.00;101195.94;6207429;28;20588;-89
2022/08/30 03:04:48;;;;;;;2.67;1.95;;;;;;;13.31;100.00;101187.56;6217164;28;20134;-89
2022/08/30 03:07:50;;;;;;;4.30;2.30;;;;;;;13.46;100.00;101195.09;6213459;28;20046;-89
2022/08/30 03:10:52;;;;;;;2.28;1.90;;;;;;;13.61;100.00;101190.44;6202434;28;20050;-89
2022/08/30 03:13:54;;;;;;;2.33;2.10;;;;;;;13.75;100.00;101187.53;6209471;28;20038;-89
2022/08/30 03:16:56;;;;;;;2.00;1.90;;;;;;;13.87;100.00;101193.53;6213944;28;20045;-90
2022/08/30 03:20:00;;;;;;;2.25;2.05;;;;;;;13.95;100.00;101191.09;6204920;28;20514;-89
2022/08/30 03:23:02;;;;;;;2.88;2.28;;;;;;;14.03;100.00;101195.69;6204914;28;20117;-89
2022/08/30 03:26:05;;;;;;;3.80;2.35;;;;;;;14.11;100.00;101190.66;6202935;28;20605;-89
2022/08/30 03:29:07;;;;;;;4.25;1.90;;;;;;;14.15;100.00;101189.44;6213412;28;20049;-89
2022/08/30 03:32:10;;;;;;;2.17;2.00;;;;;;;14.17;100.00;101196.19;6218322;28;20046;-89
2022/08/30 03:35:13;;;;;;;3.45;1.83;;;;;;;14.23;100.00;101197.44;6212576;28;20420;-89
2022/08/30 03:38:15;;;;;;;2.67;2.25;;;;;;;14.27;100.00;101196.25;6214626;28;20470;-89
2022/08/30 03:41:17;;;;;;;3.97;2.53;;;;;;;14.33;100.00;101194.88;6207557;28;20061;-89
2022/08/30 03:44:20;;;;;;;4.75;2.33;;;;;;;14.36;100.00;101194.63;6212654;28;20069;-89
2022/08/30 03:47:21;;;;;;;3.50;2.47;;;;;;;14.39;100.00;101200.41;6206293;28;20045;-89
2022/08/30 03:50:24;;;;;;;5.32;3.28;;;;;;;14.44;100.00;101200.03;6203521;28;20046;-88
2022/08/30 03:53:26;;;;;;;3.75;2.85;;;;;;;14.53;100.00;101198.41;6208301;28;20057;-89
2022/08/30 03:56:27;;;;;;;5.15;3.90;;;;;;;14.58;100.00;101197.13;6216408;28;20069;-88
2022/08/30 03:59:29;;;;;;;6.18;3.75;;;;;;;14.61;100.00;101196.84;6236166;28;20041;-89
2022/08/30 04:02:31;;;;;;;9.18;4.47;;;;;;;14.67;100.00;101185.06;6222636;28;20049;-89
2022/08/30 04:05:33;;;;;;;7.50;4.22;;;;;;;14.70;100.00;101192.63;6209176;28;20046;-89
2022/08/30 04:08:35;;;;;;;6.88;4.90;;;;;;;14.74;100.00;101188.81;6209815;28;20056;-89
2022/08/30 04:11:37;;;;;;;7.75;4.65;;;;;;;14.79;100.00;101201.44;6222494;28;20045;-89
2022/08/30 04:14:39;;;;;;;6.90;4.50;;;;;;;14.83;100.00;101201.06;6205735;28;20049;-89
2022/08/30 04:17:42;;;;;;;6.80;4.63;;;;;;;14.84;100.00;101192.25;6205698;28;20117;-89
2022/08/30 04:20:44;;;;;;;8.77;4.93;;;;;;;14.86;100.00;101198.19;6199013;28;20508;-89
2022/08/30 04:23:46;;;;;;;8.13;4.80;;;;;;;14.93;100.00;101205.44;6204907;28;20486;-89
2022/08/30 04:26:48;;;;;;;7.82;4.70;;;;;;;14.91;100.00;101202.19;6210302;28;20046;-89
2022/08/30 04:29:50;;;;;;;6.60;4.43;;;;;;;14.92;100.00;101211.63;6213688;28;20069;-89
2022/08/30 04:32:51;;;;;;;5.25;4.05;;;;;;;14.96;100.00;101211.25;6206803;28;20619;-89
2022/08/30 04:36:03;;;;;;;6.90;4.07;;;;;;;14.97;100.00;101204.25;6211534;28;20038;-89
2022/08/30 04:39:05;;;;;;;6.93;4.20;;;;;;;14.96;100.00;101208.63;6217183;28;20042;-89
2022/08/30 04:42:09;;;;;;;6.45;4.07;;;;;;;14.96;100.00;101210.41;6212657;28;20038;-89
2022/08/30 04:45:13;;;;;;;7.20;4.78;;;;;;;14.97;100.00;101209.44;6203024;28;20164;-89
2022/08/30 04:48:16;;;;;;;6.82;4.65;;;;;;;14.95;100.00;101222.59;6207195;28;20038;-89
2022/08/30 04:51:18;;;;;;;7.18;4.78;;;;;;;14.98;100.00;101218.91;6213079;28;20125;-89
2022/08/30 04:54:20;;;;;;;7.93;4.63;;;;;;;15.00;100.00;101217.00;6194246;28;20129;-89
2022/08/30 04:57:23;;;;;;;6.63;4.72;;;;;;;15.05;100.00;101225.25;6209788;28;20506;-88
2022/08/30 05:00:25;;;;;;;7.40;4.63;;;;;;;15.11;100.00;101227.34;6196499;28;20368;-89
2022/08/30 05:03:27;;;;;;;6.85;4.70;;;;;;;15.14;100.00;101218.44;6203536;28;20474;-89
2022/08/30 05:06:32;;;;;;;8.40;4.63;;;;;;;15.18;100.00;101227.59;6202352;28;20161;-89
2022/08/30 05:09:34;;;;;;;7.47;4.18;;;;;;;15.19;100.00;101224.88;6217364;28;20646;-89
2022/08/30 05:12:36;;;;;;;6.28;3.97;;;;;;;15.24;100.00;101235.72;6217766;28;20045;-89
2022/08/30 05:15:39;;;;;;;4.68;4.03;;;;;;;15.25;100.00;101236.56;6220421;28;20504;-89
2022/08/30 05:18:41;;;;;;;5.05;4.05;;;;;;;15.24;100.00;101240.94;6214386;28;20048;-89
2022/08/30 05:21:43;;;;;;;3.80;3.42;;;;;;;15.32;100.00;101244.69;6221569;28;20050;-89
2022/08/30 05:24:44;;;;;;;4.18;3.35;;;;;;;15.35;100.00;101242.59;6225889;28;20034;-89
2022/08/30 05:27:46;;;;;;;4.97;3.88;;;;;;;15.37;100.00;101245.09;6210554;28;20315;-89
2022/08/30 05:30:48;;;;;;;4.88;3.40;;;;;;;15.40;100.00;101252.66;6236460;28;20053;-89
2022/08/30 05:33:52;;;;;;;4.82;3.50;;;;;;;15.45;100.00;101251.31;6229007;28;20038;-88
2022/08/30 05:36:54;;;;;;;6.60;3.90;;;;;;;15.49;100.00;101255.28;6215820;28;20053;-89
2022/08/30 05:39:58;;;;;;;4.07;3.33;;;;;;;15.56;100.00;101249.53;6216142;28;20040;-89
2022/08/30 05:43:01;;;;;;;8.70;4.75;;;;;;;15.62;100.00;101254.19;6216922;28;20069;-88
2022/08/30 05:46:10;;;;;;;6.47;3.53;;;;;;;15.66;100.00;101248.56;6222637;28;20050;-89
2022/08/30 05:49:13;;;;;;;6.18;3.60;;;;;;;15.70;100.00;101251.75;6211308;28;20045;-89
2022/08/30 05:52:17;;;;;;;4.35;3.38;;;;;;;15.75;100.00;101253.94;6197265;28;20912;-89
2022/08/30 05:55:18;;;;;;;5.00;3.65;;;;;;;15.78;100.00;101264.13;6208218;28;20216;-89
2022/08/30 05:58:20;;;;;;;3.92;3.45;;;;;;;15.77;100.00;101258.06;6208821;28;20213;-89
2022/08/30 06:01:32;;;;;;;5.13;4.05;;;;;;;15.83;100.00;101256.72;6235838;28;20046;-89
2022/08/30 06:04:35;;;;;;;5.35;3.97;;;;;;;15.87;100.00;101263.28;6229675;28;20493;-89
2022/08/30 06:07:37;;;;;;;5.72;4.22;;;;;;;15.90;100.00;101261.25;6209612;28;20042;-89
2022/08/30 06:10:39;;;;;;;3.72;3.40;;;;;;;15.93;100.00;101260.97;6205455;28;20100;-89
2022/08/30 06:13:40;;;;;;;5.55;4.20;;;;;;;15.94;100.00;101257.38;6215606;28;20626;-89
2022/08/30 06:16:44;;;;;;;4.97;4.45;;;;;;;15.99;100.00;101253.53;6210109;28;20053;-89
2022/08/30 06:19:47;;;;;;;5.95;4.53;;;;;;;16.05;100.00;101255.59;6215264;28;20057;-89
2022/08/30 06:22:49;;;;;;;9.27;6.25;;;;;;;16.10;100.00;101264.69;6205809;28;20779;-89
2022/08/30 06:25:51;;;;;;;8.90;5.55;;;;;;;16.12;100.00;101267.97;6193751;28;20408;-89
2022/08/30 06:28:53;;;;;;;12.25;6.50;;;;;;;16.12;100.00;101267.97;6204378;28;20503;-89
2022/08/30 06:31:56;;;;;;;10.75;5.95;;;;;;;16.09;100.00;101268.22;6217235;28;20046;-89
2022/08/30 06:34:58;;;;;;;10.65;6.40;;;;;;;16.12;100.00;101273.19;6209870;28;20045;-89
2022/08/30 06:38:03;;;;;;;9.27;6.00;;;;;;;16.17;100.00;101277.97;6227271;28;20042;-89
2022/08/30 06:41:18;;;;;;;10.68;6.53;;;;;;;16.19;100.00;101270.84;6207494;28;20622;-89
2022/08/30 06:44:20;;;;;;;11.60;6.40;;;;;;;16.24;100.00;101276.47;6219307;28;20359;-89
2022/08/30 06:47:22;;;;;;;9.18;6.15;;;;;;;16.32;100.00;101278.38;6207439;28;20037;-89
2022/08/30 06:50:24;;;;;;;9.88;6.07;;;;;;;16.35;100.00;101276.31;6210748;28;20047;-89
2022/08/30 06:53:28;;;;;;;11.13;6.68;;;;;;;16.44;100.00;101276.44;6219899;28;20050;-89
2022/08/30 06:56:35;;;;;;;9.98;6.95;;;;;;;16.60;100.00;101268.84;6225038;28;20054;-89
2022/08/30 06:59:37;;;;;;;13.02;6.82;;;;;;;16.72;100.00;101279.94;6226448;28;20711;-89
2022/08/30 07:02:40;;;;;;;11.30;7.07;;;;;;;16.79;100.00;101279.28;6213692;28;20049;-89
2022/08/30 07:05:42;;;;;;;9.13;6.70;;;;;;;16.87;100.00;101277.69;6193821;28;20080;-89
2022/08/30 07:08:45;;;;;;;9.43;6.65;;;;;;;17.05;100.00;101281.22;6213626;28;20046;-89
2022/08/30 07:11:46;;;;;;;8.90;6.65;;;;;;;17.25;100.00;101284.56;6219132;28;20041;-89
2022/08/30 07:14:48;;;;;;;10.35;7.10;;;;;;;17.42;100.00;101282.97;6219659;28;20049;-89
2022/08/30 07:21:16;;;;;;;11.23;7.03;;;;;;;17.92;100.00;101277.25;6226422;28;20368;-89
2022/08/30 07:24:18;;;;;;;10.45;7.20;;;;;;;18.09;100.00;101275.59;6217026;28;20491;-89
2022/08/30 07:27:20;;;;;;;11.30;7.43;;;;;;;18.22;100.00;101281.25;6215156;28;20049;-89
2022/08/30 07:30:23;;;;;;;10.90;8.20;;;;;;;18.27;100.00;101286.03;6213349;28;20570;-89
2022/08/30 07:33:25;;;;;;;14.88;8.38;;;;;;;18.33;100.00;101292.47;6204755;28;20041;-89
2022/08/30 07:36:28;;;;;;;16.73;8.65;;;;;;;18.35;100.00;101295.75;6213184;28;20042;-89
2022/08/30 07:39:30;;;;;;;13.73;8.38;;;;;;;18.42;100.00;101296.78;6204267;28;20176;-89
2022/08/30 07:42:32;;;;;;;12.05;8.20;;;;;;;18.50;100.00;101295.03;6206716;28;20050;-89
2022/08/30 07:45:36;;;;;;;15.50;8.63;;;;;;;18.63;100.00;101293.78;6201830;28;20078;-89
2022/08/30 07:48:38;;;;;;;18.95;7.53;;;;;;;18.68;100.00;101305.50;6209730;28;20053;-89
2022/08/30 07:51:40;;;;;;;10.43;6.95;;;;;;;18.61;100.00;101301.84;6236693;28;20055;-89
2022/08/30 07:54:42;;;;;;;13.05;8.25;;;;;;;18.55;100.00;101307.69;6223493;28;20053;-89
2022/08/30 07:57:45;;;;;;;12.50;7.90;;;;;;;18.55;100.00;101299.81;6236767;28;20057;-89
2022/08/30 08:00:47;;;;;;;13.52;8.38;;;;;;;18.69;100.00;101303.69;6195864;28;20038;-89
2022/08/30 08:03:49;;;;;;;11.07;7.63;;;;;;;18.79;97.87;101301.81;6219220;28;20076;-89
2022/08/30 08:06:51;;;;;;;13.00;7.45;;;;;;;18.78;96.88;101308.03;6214738;28;20052;-89
2022/08/30 08:09:52;;;;;;;10.90;7.78;;;;;;;18.84;96.84;101317.88;6232846;28;20060;-89
2022/08/30 08:12:54;;;;;;;11.18;7.28;;;;;;;18.89;96.60;101320.88;6222969;28;20065;-89
2022/08/30 08:15:56;;;;;;;14.32;9.10;;;;;;;18.88;96.00;101321.00;6205197;28;20057;-89
2022/08/30 08:18:58;;;;;;;14.70;9.85;;;;;;;18.88;95.67;101324.47;6192632;28;20069;-89
2022/08/30 08:22:01;;;;;;;21.75;13.57;;;;;;;18.93;94.90;101316.97;6219938;28;20050;-89
2022/08/30 08:25:22;;;;;;;16.30;10.63;;;;;;;19.01;95.57;101313.56;6196288;28;20042;-89
2022/08/30 08:28:24;;;;;;;19.67;12.27;;;;;;;19.07;96.07;101312.91;6221472;28;20090;-90
2022/08/30 08:31:27;;;;;;;17.45;10.23;;;;;;;19.09;94.91;101313.59;6206443;28;20629;-89
2022/08/30 08:34:35;;;;;;;18.13;10.90;;;;;;;19.15;94.88;101310.34;6200126;28;20050;-90
2022/08/30 08:37:38;;;;;;;17.40;11.27;;;;;;;19.31;93.80;101314.00;6203449;28;20514;-90
2022/08/30 08:41:04;;;;;;;19.17;11.70;;;;;;;19.48;91.84;101315.69;6203530;28;20208;-89
2022/08/30 08:44:42;;;;;;;16.23;8.80;;;;;;;19.72;90.88;101312.31;6217273;28;20042;-89
2022/08/30 08:48:05;;;;;;;19.20;11.30;;;;;;;19.84;89.34;101322.53;6208637;28;20108;-89
2022/08/30 08:54:55;;;;;;;19.13;10.00;;;;;;;20.13;86.99;101325.50;6190018;28;20042;-89
2022/08/30 08:58:00;;;;;;;14.75;9.48;;;;;;;20.29;86.12;101331.72;6201229;28;20038;-89
2022/08/30 09:01:02;;;;;;;10.77;8.50;;;;;;;20.40;84.73;101324.34;6198186;28;20041;-89
2022/08/30 09:04:25;;;;;;;13.32;8.48;;;;;;;20.51;84.02;101317.91;6208481;28;20053;-89
2022/08/30 09:07:34;;;;;;;9.48;7.22;;;;;;;20.74;82.88;101312.78;6194267;28;20034;-89
2022/08/30 09:10:38;;;;;;;7.93;5.80;;;;;;;21.01;81.35;101321.25;6210619;28;20100;-89
2022/08/30 09:13:55;;;;;;;6.97;6.28;;;;;;;21.22;80.07;101326.78;6202257;28;20471;-89
2022/08/30 09:17:00;;;;;;;8.85;6.13;;;;;;;21.36;80.74;101321.75;6207932;28;20532;-90
2022/08/30 09:20:04;;;;;;;7.22;6.28;;;;;;;21.53;78.46;101317.25;6198732;28;20038;-90
2022/08/30 09:23:15;;;;;;;7.05;6.13;;;;;;;21.60;78.01;101321.66;6196607;28;20053;-89
2022/08/30 09:26:29;;;;;;;9.23;6.32;;;;;;;21.70;77.63;101322.25;6194433;28;20042;-90
2022/08/30 09:29:33;;;;;;;7.45;6.18;;;;;;;21.83;77.98;101316.41;6193662;28;20042;-90
2022/08/30 09:33:04;;;;;;;8.13;5.68;;;;;;;21.97;74.69;101314.81;6203057;28;20507;-89
2022/08/30 09:36:21;;;;;;;6.18;5.05;;;;;;;21.89;77.36;101322.81;6201716;28;20072;-89
2022/08/30 09:39:36;;;;;;;13.10;6.50;;;;;;;21.94;74.92;101323.91;6217353;28;20425;-89
2022/08/30 09:42:39;;;;;;;7.78;6.18;;;;;;;21.95;75.22;101322.09;6205873;28;20403;-89
2022/08/30 09:45:46;;;;;;;7.57;6.78;;;;;;;22.06;75.48;101324.31;6216441;28;20049;-89
2022/08/30 09:48:50;;;;;;;7.50;6.72;;;;;;;22.20;72.76;101337.75;6204846;28;20574;-89
2022/08/30 09:52:22;;;;;;;6.50;5.18;;;;;;;22.17;73.48;101332.81;6207594;28;20038;-90
2022/08/30 09:55:47;;;;;;;6.50;5.35;;;;;;;22.03;75.15;101327.28;6130513;29;20070;-89
2022/08/30 09:58:50;;;;;;;9.80;8.32;;;;;;;21.91;74.92;101320.78;6110429;29;20138;-89
2022/08/30 10:02:06;;;;;;;10.77;9.68;;;;;;;21.97;75.75;101325.38;6125937;29;20051;-89
2022/08/30 10:05:19;;;;;;;11.63;9.00;;;;;;;22.15;74.80;101320.59;6126610;29;20054;-89
2022/08/30 10:08:34;;;;;;;11.60;9.65;;;;;;;22.27;74.38;101325.50;6133710;29;20039;-89
2022/08/30 10:12:03;;;;;;;10.98;9.82;;;;;;;22.27;73.36;101330.75;6120527;29;20055;-89
2022/08/30 10:15:33;;;;;;;12.65;9.60;;;;;;;22.24;73.85;101323.22;6125160;29;20059;-89
2022/08/30 10:19:00;;;;;;;10.00;8.95;;;;;;;22.16;74.98;101316.16;6127861;29;20066;-89
2022/08/30 10:22:18;;;;;;;10.45;9.05;;;;;;;22.19;74.00;101317.63;6133116;29;20572;-89
2022/08/30 10:25:25;;;;;;;10.43;8.77;;;;;;;22.18;73.60;101318.59;6115940;29;20070;-89
2022/08/30 10:28:36;;;;;;;10.60;8.82;;;;;;;22.09;73.91;101318.69;6122452;29;20118;-89
2022/08/30 10:32:04;;;;;;;10.75;9.27;;;;;;;22.17;73.93;101319.63;6143651;28;20062;-89
2022/08/30 10:35:12;;;;;;;11.68;9.52;;;;;;;22.26;73.67;101321.19;6204407;28;20042;-89
2022/08/30 10:38:24;;;;;;;12.27;9.10;;;;;;;22.28;74.35;101321.84;6208780;28;20447;-89
2022/08/30 10:41:35;;;;;;;12.45;8.85;;;;;;;22.43;73.92;101319.22;6206183;28;20068;-89
2022/08/30 10:44:43;;;;;;;13.00;10.98;;;;;;;22.50;71.78;101320.97;6198177;28;20049;-89
2022/08/30 10:48:18;;;;;;;13.38;11.38;;;;;;;22.61;70.44;101319.72;6205876;28;20575;-89
2022/08/30 10:51:38;;;;;;;12.38;10.52;;;;;;;22.80;70.69;101319.16;6218834;28;20057;-89
2022/08/30 10:55:03;;;;;;;12.68;10.70;;;;;;;22.95;70.20;101316.50;6225200;28;20053;-89
2022/08/30 10:58:06;;;;;;;13.95;10.57;;;;;;;23.07;69.57;101316.91;6196512;28;20054;-89
2022/08/30 11:01:33;;;;;;;11.45;10.18;;;;;;;23.19;69.27;101315.44;6210838;28;20132;-89
2022/08/30 11:04:54;;;;;;;10.00;9.00;;;;;;;23.08;68.70;101312.44;6194962;28;20041;-89
2022/08/30 11:08:18;;;;;;;9.65;7.95;;;;;;;22.92;68.89;101308.97;6204203;28;20043;-89
2022/08/30 11:11:54;;;;;;;10.45;8.23;;;;;;;22.22;70.93;101309.38;6210608;28;20045;-90
2022/08/30 11:14:57;;;;;;;9.35;8.18;;;;;;;21.66;73.86;101301.69;6203576;28;20049;-89
2022/08/30 11:18:13;;;;;;;9.57;8.00;;;;;;;21.37;74.74;101302.34;6207085;28;20045;-89
2022/08/30 11:21:34;;;;;;;9.48;7.63;;;;;;;21.19;76.22;101299.94;6189296;28;20061;-89
2022/08/30 11:25:14;;;;;;;8.75;7.55;;;;;;;21.03;76.63;101295.59;6199701;28;20128;-89
2022/08/30 11:28:35;;;;;;;7.68;6.97;;;;;;;20.98;78.02;101292.66;6211624;28;20034;-89
2022/08/30 11:31:39;;;;;;;8.82;7.70;;;;;;;21.21;77.52;101296.16;6198589;28;20045;-90
2022/08/30 11:34:44;;;;;;;9.02;7.85;;;;;;;21.43;76.64;101299.03;6211421;28;20532;-89
2022/08/30 11:37:47;;;;;;;8.75;7.78;;;;;;;21.36;76.01;101290.16;6201898;28;20065;-89
2022/08/30 11:40:54;;;;;;;10.43;7.80;;;;;;;21.44;76.72;101287.50;6192880;28;20042;-89
2022/08/30 11:44:16;;;;;;;9.07;7.78;;;;;;;21.64;75.06;101285.22;6218494;28;20045;-90
2022/08/30 11:47:38;;;;;;;7.20;6.35;;;;;;;21.60;73.88;101278.69;6210045;28;20444;-90
2022/08/30 11:51:07;;;;;;;6.80;6.07;;;;;;;21.60;72.87;101266.34;6209592;28;20049;-90
2022/08/30 11:54:21;;;;;;;7.07;6.37;;;;;;;21.68;74.34;101268.91;6220163;28;20037;-91
2022/08/30 11:57:49;;;;;;;9.38;6.60;;;;;;;21.91;74.38;101270.69;6207899;28;20045;-90
2022/08/30 12:01:26;;;;;;;7.75;6.57;;;;;;;22.04;73.18;101259.56;6236553;28;20050;-91
2022/08/30 12:04:48;;;;;;;5.60;5.10;;;;;;;22.22;70.89;101259.28;6216870;28;20034;-90
2022/08/30 12:08:01;;;;;;;5.30;4.78;;;;;;;22.23;70.67;101253.78;6203219;28;20057;-90
2022/08/30 12:11:09;;;;;;;5.90;4.70;;;;;;;22.33;71.36;101257.03;6197021;28;20048;-91
2022/08/30 12:14:40;;;;;;;5.55;5.03;;;;;;;22.37;69.99;101244.28;6205234;28;20133;-90
2022/08/30 12:21:11;;;;;;;8.20;5.10;;;;;;;22.50;70.80;101243.63;6198125;28;20387;-91
2022/08/30 12:24:23;;;;;;;5.40;4.90;;;;;;;22.79;69.55;101238.34;6199451;28;20038;-92
2022/08/30 12:27:32;;;;;;;5.32;4.82;;;;;;;22.97;68.06;101229.22;6212968;28;20169;-91
2022/08/30 12:30:38;;;;;;;5.00;4.43;;;;;;;23.05;68.07;101223.03;6204913;28;20042;-94
2022/08/30 12:33:44;;;;;;;3.72;3.40;;;;;;;23.18;70.03;101223.19;6211365;28;20049;-93
2022/08/30 12:37:26;;;;;;;4.63;3.67;;;;;;;23.56;67.03;101217.66;6201383;28;20054;-92
2022/08/30 12:40:30;;;;;;;3.88;3.47;;;;;;;23.79;64.62;101215.63;6126487;29;20043;-93
2022/08/30 12:43:35;;;;;;;2.95;2.75;;;;;;;23.96;65.91;101218.00;6128727;29;20051;-90
2022/08/30 12:46:45;;;;;;;3.25;2.30;;;;;;;24.22;63.98;101217.34;6131363;29;20074;-93
2022/08/30 12:49:50;;;;;;;2.95;2.35;;;;;;;24.42;62.43;101217.47;6107230;29;20467;-91
2022/08/30 12:53:12;;;;;;;2.40;2.20;;;;;;;24.58;59.20;101214.53;6116749;29;20153;-89
2022/08/30 12:56:16;;;;;;;3.15;2.30;;;;;;;24.60;58.82;101206.41;6115818;29;20043;-91
2022/08/30 12:59:51;;;;;;;2.75;2.10;;;;;;;24.57;61.11;101207.59;6123773;29;20047;-91
2022/08/30 13:03:35;;;;;;;3.30;1.95;;;;;;;24.75;60.04;101198.31;6129942;29;20588;-90
2022/08/30 13:06:58;;;;;;;2.35;2.15;;;;;;;24.97;56.79;101199.81;6126905;29;20047;-92
2022/08/30 13:10:04;;;;;;;3.08;1.70;;;;;;;25.17;54.46;101193.75;6142486;28;20196;-93
2022/08/30 13:13:06;;;;;;;1.75;1.60;;;;;;;25.13;54.83;101191.47;6198919;28;20048;-90
2022/08/30 13:16:16;;;;;;;1.50;1.40;;;;;;;25.17;54.13;101178.69;6210953;28;20557;-93
2022/08/30 13:19:35;;;;;;;1.95;1.50;;;;;;;25.25;55.02;101185.63;6207510;28;20049;-93
2022/08/30 13:22:40;;;;;;;1.57;1.47;;;;;;;25.50;55.27;101181.34;6194487;28;20180;-92
2022/08/30 13:25:42;;;;;;;2.22;1.45;;;;;;;25.74;54.23;101185.22;6197466;28;20124;-90
2022/08/30 13:28:49;;;;;;;1.73;1.45;;;;;;;26.00;51.40;101176.44;6199182;28;20030;-92
2022/08/30 13:31:50;;;;;;;2.60;2.13;;;;;;;26.03;51.16;101169.09;6212043;28;20042;-91
2022/08/30 13:34:52;;;;;;;2.35;1.73;;;;;;;25.96;52.81;101164.63;6194002;28;20053;-92
2022/08/30 13:37:55;;;;;;;1.80;1.40;;;;;;;26.14;53.89;101166.63;6213604;28;20499;-91
2022/08/30 13:40:58;;;;;;;2.40;1.60;;;;;;;26.35;52.65;101167.34;6196476;28;20586;-91
2022/08/30 13:44:03;;;;;;;2.45;1.23;;;;;;;26.49;51.35;101163.63;6210105;28;20044;-92
2022/08/30 13:47:21;;;;;;;2.20;1.30;;;;;;;26.66;49.96;101164.00;6202835;28;20452;-91
2022/08/30 13:50:38;;;;;;;1.40;1.30;;;;;;;26.76;49.15;101168.84;6192927;28;20038;-91
2022/08/30 13:53:40;;;;;;;1.40;1.30;;;;;;;26.87;47.55;101164.69;6198956;28;20038;-92
2022/08/30 13:56:58;;;;;;;1.92;1.40;;;;;;;26.80;49.87;101165.53;6194859;28;20046;-91
2022/08/30 14:00:05;;;;;;;3.40;1.77;;;;;;;26.73;49.35;101158.63;6196921;28;20171;-91
2022/08/30 14:03:13;;;;;;;2.38;1.52;;;;;;;26.81;49.56;101150.44;6195285;28;20057;-91
2022/08/30 14:06:15;;;;;;;2.60;1.80;;;;;;;26.84;48.59;101156.13;6197162;28;20033;-91
2022/08/30 14:09:34;;;;;;;1.67;1.58;;;;;;;26.86;47.92;101158.56;6198893;28;20046;-91
2022/08/30 14:12:36;;;;;;;1.65;1.40;;;;;;;26.95;47.84;101151.94;6196534;28;20042;-92
2022/08/30 14:15:55;;;;;;;2.05;1.35;;;;;;;27.10;47.41;101153.50;6187667;28;20507;-92
2022/08/30 14:19:17;;;;;;;3.40;1.40;;;;;;;27.21;47.17;101144.88;6211416;28;20661;-90
2022/08/30 14:22:19;;;;;;;2.55;1.40;;;;;;;27.31;48.46;101149.72;6197056;28;20479;-90
2022/08/30 14:25:21;;;;;;;2.50;1.60;;;;;;;27.46;47.51;101145.69;6201672;28;20042;-89
2022/08/30 14:28:24;;;;;;;2.08;1.50;;;;;;;27.40;47.55;101143.91;6211735;28;20407;-88
2022/08/30 14:31:30;;;;;;;1.67;1.40;;;;;;;27.46;46.91;101142.22;6206231;28;20049;-88
2022/08/30 14:34:34;;;;;;;1.98;1.33;;;;;;;27.50;46.73;101143.38;6213159;28;20045;-88